Time,TemperatureF,DewpointF,PressureIn,WindDirection,WindDirectionDegrees,WindSpeedMPH,WindSpeedGustMPH,Humidity,HourlyPrecipIn,Conditions,Clouds,dailyrainin,SoftwareType,DateUTC
2013-03-06 00:02:00,32.4,29.8,30.04,NE,36,2.0,3.0,90,0.00,,OVC035,0.00,VWS V14.00,2013-03-06 05:02:00,
2013-03-06 00:07:00,32.6,30.0,30.04,NE,36,0.0,4.0,90,0.00,,OVC035,0.00,VWS V14.00,2013-03-06 05:07:00,
2013-03-06 00:12:00,32.4,29.8,30.04,NE,36,2.0,4.0,90,0.00,,OVC035,0.00,VWS V14.00,2013-03-06 05:12:00,
2013-03-06 00:17:00,32.6,30.0,30.04,NE,36,0.0,5.0,90,0.00,,OVC035,0.00,VWS V14.00,2013-03-06 05:17:00,
2013-03-06 00:22:00,32.6,30.0,30.03,NE,37,0.0,6.0,90,0.00,,OVC035,0.00,VWS V14.00,2013-03-06 05:22:00,
2013-03-06 00:27:00,32.4,29.8,30.04,NE,37,0.0,6.0,90,0.00,,OVC035,0.00,VWS V14.00,2013-03-06 05:27:00,
2013-03-06 00:32:00,32.3,29.7,30.03,NE,37,0.0,3.0,90,0.00,,OVC035,0.00,VWS V14.00,2013-03-06 05:32:00,
2013-03-06 00:37:00,32.1,29.5,30.03,NE,37,0.0,3.0,90,0.00,,OVC035,0.00,VWS V14.00,2013-03-06 05:37:00,
2013-03-06 00:42:00,32.0,29.4,30.03,NE,37,0.0,3.0,90,0.00,,OVC035,0.00,VWS V14.00,2013-03-06 05:42:00,
2013-03-06 00:47:00,31.9,29.3,30.03,NE,37,0.0,3.0,90,0.00,,OVC035,0.00,VWS V14.00,2013-03-06 05:47:00,
2013-03-06 00:52:00,31.7,29.4,30.04,NE,37,0.0,3.0,91,0.00,,OVC035,0.00,VWS V14.00,2013-03-06 05:52:00,
2013-03-06 00:57:00,31.7,29.4,30.04,NE,37,0.0,3.0,91,0.00,,OVC035,0.00,VWS V14.00,2013-03-06 05:57:00,
2013-03-06 01:02:00,31.7,29.4,30.04,NE,37,1.0,3.0,91,0.00,,OVC040,0.00,VWS V14.00,2013-03-06 06:02:00,
2013-03-06 01:07:00,31.9,29.6,30.03,NE,37,1.0,3.0,91,0.00,,OVC040,0.00,VWS V14.00,2013-03-06 06:07:00,
2013-03-06 01:12:00,32.0,29.9,30.03,NE,37,2.0,4.0,92,0.00,,OVC040,0.00,VWS V14.00,2013-03-06 06:12:00,
2013-03-06 01:17:00,32.4,30.6,30.03,NE,36,1.0,4.0,93,0.00,,OVC040,0.00,VWS V14.00,2013-03-06 06:17:00,
2013-03-06 01:22:00,32.6,30.8,30.03,NE,36,2.0,4.0,93,0.00,,OVC040,0.00,VWS V14.00,2013-03-06 06:22:00,
2013-03-06 01:27:00,32.7,30.9,30.03,NE,36,0.0,4.0,93,0.00,,OVC040,0.00,VWS V14.00,2013-03-06 06:27:00,
2013-03-06 01:32:00,32.6,30.8,30.04,NE,36,2.0,2.0,93,0.00,,OVC040,0.00,VWS V14.00,2013-03-06 06:32:00,
2013-03-06 01:37:00,32.6,30.8,30.04,NE,36,0.0,2.0,93,0.00,,OVC040,0.00,VWS V14.00,2013-03-06 06:37:00,
2013-03-06 01:42:00,32.6,31.1,30.04,NE,36,2.0,4.0,94,0.00,,OVC040,0.00,VWS V14.00,2013-03-06 06:42:00,
2013-03-06 01:47:00,32.6,31.1,30.04,NE,36,0.0,4.0,94,0.00,,OVC040,0.00,VWS V14.00,2013-03-06 06:47:00,
2013-03-06 01:52:00,32.6,31.1,30.04,NE,36,0.0,4.0,94,0.00,,OVC040,0.00,VWS V14.00,2013-03-06 06:52:00,
2013-03-06 01:57:00,32.7,31.2,30.04,NE,36,2.0,4.0,94,0.00,,OVC040,0.00,VWS V14.00,2013-03-06 06:57:00,
2013-03-06 02:02:00,33.0,31.5,30.03,NE,36,0.0,5.0,94,0.00,,BKN021,0.00,VWS V14.00,2013-03-06 07:02:00,
2013-03-06 02:07:00,33.0,31.5,30.04,NE,36,0.0,5.0,94,0.00,,BKN021,0.00,VWS V14.00,2013-03-06 07:07:00,
2013-03-06 02:12:00,33.0,31.5,30.04,NE,36,0.0,5.0,94,0.00,,BKN021,0.00,VWS V14.00,2013-03-06 07:12:00,
2013-03-06 02:17:00,33.1,31.8,30.04,NE,36,5.0,6.0,95,0.00,,BKN021,0.00,VWS V14.00,2013-03-06 07:17:00,
2013-03-06 02:22:00,33.3,32.0,30.03,NE,36,0.0,6.0,95,0.00,,BKN021,0.00,VWS V14.00,2013-03-06 07:22:00,
2013-03-06 02:27:00,33.3,32.0,30.04,North,0,2.0,7.0,95,0.00,,BKN021,0.00,VWS V14.00,2013-03-06 07:27:00,
2013-03-06 02:32:00,33.5,32.2,30.04,North,1,1.0,5.0,95,0.00,,BKN021,0.00,VWS V14.00,2013-03-06 07:32:00,
2013-03-06 02:37:00,33.5,32.2,30.04,North,1,0.0,5.0,95,0.00,,BKN021,0.00,VWS V14.00,2013-03-06 07:37:00,
2013-03-06 02:42:00,33.7,32.4,30.03,North,3,1.0,5.0,95,0.00,,BKN021,0.00,VWS V14.00,2013-03-06 07:42:00,
2013-03-06 02:47:00,33.7,32.7,30.04,North,3,1.0,5.0,96,0.00,,BKN021,0.00,VWS V14.00,2013-03-06 07:47:00,
2013-03-06 02:52:00,33.8,32.5,30.04,North,3,4.0,5.0,95,0.00,,BKN021,0.00,VWS V14.00,2013-03-06 07:52:00,
2013-03-06 02:57:00,34.0,32.7,30.04,North,1,2.0,7.0,95,0.00,,BKN021,0.00,VWS V14.00,2013-03-06 07:57:00,
2013-03-06 03:02:00,34.0,33.0,30.03,North,1,2.0,4.0,96,0.00,,OVC024,0.00,VWS V14.00,2013-03-06 08:02:00,
2013-03-06 03:07:00,34.1,33.1,30.04,North,3,1.0,6.0,96,0.00,,OVC024,0.00,VWS V14.00,2013-03-06 08:07:00,
2013-03-06 03:12:00,34.1,33.1,30.04,North,3,3.0,6.0,96,0.00,,OVC024,0.00,VWS V14.00,2013-03-06 08:12:00,
2013-03-06 03:17:00,34.3,33.3,30.04,North,3,0.0,6.0,96,0.00,,OVC024,0.00,VWS V14.00,2013-03-06 08:17:00,
2013-03-06 03:22:00,34.2,33.2,30.04,North,4,0.0,6.0,96,0.00,,OVC024,0.00,VWS V14.00,2013-03-06 08:22:00,
2013-03-06 03:27:00,34.3,33.3,30.05,North,4,0.0,6.0,96,0.00,,OVC024,0.00,VWS V14.00,2013-03-06 08:27:00,
2013-03-06 03:32:00,34.3,33.3,30.05,North,4,0.0,3.0,96,0.00,,OVC024,0.00,VWS V14.00,2013-03-06 08:32:00,
2013-03-06 03:37:00,34.3,33.3,30.04,North,4,1.0,5.0,96,0.00,,OVC024,0.00,VWS V14.00,2013-03-06 08:37:00,
2013-03-06 03:42:00,34.1,33.1,30.04,North,5,0.0,5.0,96,0.01,,OVC024,0.01,VWS V14.00,2013-03-06 08:42:00,
2013-03-06 03:47:00,34.1,33.1,30.04,North,5,1.0,5.0,96,0.01,,OVC024,0.01,VWS V14.00,2013-03-06 08:47:00,
2013-03-06 03:52:00,34.1,33.1,30.05,North,5,2.0,5.0,96,0.01,,OVC024,0.01,VWS V14.00,2013-03-06 08:52:00,
2013-03-06 03:57:00,34.1,33.1,30.04,North,5,1.0,5.0,96,0.01,,OVC024,0.01,VWS V14.00,2013-03-06 08:57:00,
2013-03-06 04:02:00,34.1,33.3,30.04,North,5,1.0,2.0,97,0.01,,-RA,0.01,VWS V14.00,2013-03-06 09:02:00,
2013-03-06 04:07:00,34.1,33.3,30.04,North,5,0.0,3.0,97,0.01,,-RA,0.01,VWS V14.00,2013-03-06 09:07:00,
2013-03-06 04:12:00,34.0,33.2,30.04,North,5,1.0,4.0,97,0.01,,-RA,0.01,VWS V14.00,2013-03-06 09:12:00,
2013-03-06 04:17:00,34.0,33.2,30.05,North,5,0.0,4.0,97,0.01,,-RA,0.01,VWS V14.00,2013-03-06 09:17:00,
2013-03-06 04:22:00,34.0,33.2,30.05,North,5,4.0,5.0,97,0.00,,-RA,0.01,VWS V14.00,2013-03-06 09:22:00,
2013-03-06 04:27:00,34.0,33.2,30.04,North,5,1.0,5.0,97,0.00,,-RA,0.01,VWS V14.00,2013-03-06 09:27:00,
2013-03-06 04:32:00,34.0,33.2,30.04,North,5,2.0,3.0,97,0.00,,-RA,0.01,VWS V14.00,2013-03-06 09:32:00,
2013-03-06 04:37:00,34.0,33.2,30.04,North,5,1.0,4.0,97,0.00,,-RA,0.01,VWS V14.00,2013-03-06 09:37:00,
2013-03-06 04:42:00,34.1,33.3,30.04,North,5,2.0,5.0,97,0.01,,-RA,0.02,VWS V14.00,2013-03-06 09:42:00,
2013-03-06 04:47:00,34.1,33.3,30.05,North,5,4.0,5.0,97,0.01,,-RA,0.02,VWS V14.00,2013-03-06 09:47:00,
2013-03-06 04:52:00,34.1,33.6,30.04,North,10,2.0,6.0,98,0.01,,-RA,0.02,VWS V14.00,2013-03-06 09:52:00,
2013-03-06 04:57:00,34.0,33.5,30.04,ENE,57,3.0,7.0,98,0.01,,-RA,0.02,VWS V14.00,2013-03-06 09:57:00,
2013-03-06 05:02:00,34.0,33.5,30.04,ENE,64,3.0,8.0,98,0.01,,-RA,0.02,VWS V14.00,2013-03-06 10:02:00,
2013-03-06 05:07:00,34.0,33.5,30.04,ENE,71,1.0,8.0,98,0.02,,-RA,0.03,VWS V14.00,2013-03-06 10:07:00,
2013-03-06 05:12:00,33.8,33.3,30.04,NE,53,0.0,8.0,98,0.02,,-RA,0.03,VWS V14.00,2013-03-06 10:12:00,
2013-03-06 05:17:00,34.0,33.5,30.04,NE,41,1.0,8.0,98,0.02,,-RA,0.03,VWS V14.00,2013-03-06 10:17:00,
2013-03-06 05:22:00,33.8,33.5,30.04,NE,38,3.0,8.0,99,0.01,,-RA,0.03,VWS V14.00,2013-03-06 10:22:00,
2013-03-06 05:27:00,33.8,33.3,30.04,NE,38,0.0,8.0,98,0.01,,-RA,0.03,VWS V14.00,2013-03-06 10:27:00,
2013-03-06 05:32:00,33.8,33.5,30.04,NE,38,0.0,3.0,99,0.01,,-RA,0.03,VWS V14.00,2013-03-06 10:32:00,
2013-03-06 05:37:00,33.8,33.5,30.03,NE,43,0.0,5.0,99,0.02,,-RA,0.04,VWS V14.00,2013-03-06 10:37:00,
2013-03-06 05:42:00,34.0,33.8,30.04,NE,43,1.0,5.0,99,0.02,,-RA,0.04,VWS V14.00,2013-03-06 10:42:00,
2013-03-06 05:47:00,34.0,33.8,30.03,NE,43,2.0,5.0,99,0.02,,-RA,0.04,VWS V14.00,2013-03-06 10:47:00,
2013-03-06 05:52:00,34.0,33.8,30.03,NE,43,1.0,5.0,99,0.03,,-RA,0.05,VWS V14.00,2013-03-06 10:52:00,
2013-03-06 05:57:00,33.8,33.5,30.03,NE,43,0.0,5.0,99,0.02,,-RA,0.05,VWS V14.00,2013-03-06 10:57:00,
2013-03-06 06:02:00,34.0,33.8,30.04,NE,40,2.0,5.0,99,0.02,,-RA,0.05,VWS V14.00,2013-03-06 11:02:00,
2013-03-06 06:07:00,34.1,33.8,30.04,NE,52,0.0,7.0,99,0.02,,-RA,0.05,VWS V14.00,2013-03-06 11:07:00,
2013-03-06 06:12:00,34.3,34.0,30.04,ENE,65,2.0,8.0,99,0.03,,-RA,0.06,VWS V14.00,2013-03-06 11:12:00,
2013-03-06 06:17:00,34.4,34.2,30.04,ENE,59,5.0,8.0,99,0.03,,-RA,0.06,VWS V14.00,2013-03-06 11:17:00,
2013-03-06 06:22:00,34.4,34.2,30.04,NE,39,5.0,8.0,99,0.02,,-RA,0.06,VWS V14.00,2013-03-06 11:22:00,
2013-03-06 06:27:00,34.5,34.2,30.04,East,84,2.0,8.0,99,0.02,,-RA,0.06,VWS V14.00,2013-03-06 11:27:00,
2013-03-06 06:32:00,34.5,34.2,30.04,ENE,60,2.0,6.0,99,0.03,,-RA,0.07,VWS V14.00,2013-03-06 11:32:00,
2013-03-06 06:37:00,34.5,34.2,30.05,NE,34,1.0,10.0,99,0.03,,-RA,0.07,VWS V14.00,2013-03-06 11:37:00,
2013-03-06 06:42:00,34.4,34.2,30.05,NNE,33,4.0,10.0,99,0.03,,-RA,0.08,VWS V14.00,2013-03-06 11:42:00,
2013-03-06 06:47:00,34.4,34.2,30.05,ENE,60,2.0,10.0,99,0.04,,-RA,0.09,VWS V14.00,2013-03-06 11:47:00,
2013-03-06 06:52:00,34.4,34.2,30.06,NE,38,2.0,10.0,99,0.04,,-RA,0.09,VWS V14.00,2013-03-06 11:52:00,
2013-03-06 06:57:00,34.5,34.2,30.06,NE,45,2.0,10.0,99,0.04,,-RA,0.09,VWS V14.00,2013-03-06 11:57:00,
2013-03-06 07:02:00,34.5,34.5,30.06,ENE,76,3.0,9.0,100,0.04,,,0.10,VWS V14.00,2013-03-06 12:02:00,
2013-03-06 07:07:00,34.5,34.2,30.06,ENE,57,2.0,9.0,99,0.04,,,0.10,VWS V14.00,2013-03-06 12:07:00,
2013-03-06 07:12:00,34.7,34.7,30.07,East,85,2.0,9.0,100,0.04,,,0.10,VWS V14.00,2013-03-06 12:12:00,
2013-03-06 07:17:00,34.7,34.5,30.07,South,182,8.0,10.0,99,0.03,,,0.10,VWS V14.00,2013-03-06 12:17:00,
2013-03-06 07:22:00,34.8,34.5,30.07,ENE,62,3.0,10.0,99,0.03,,,0.10,VWS V14.00,2013-03-06 12:22:00,
2013-03-06 07:27:00,35.0,34.8,30.07,ENE,73,3.0,10.0,99,0.03,,,0.10,VWS V14.00,2013-03-06 12:27:00,
2013-03-06 07:32:00,35.0,35.0,30.07,ENE,66,5.0,6.0,100,0.04,,,0.11,VWS V14.00,2013-03-06 12:32:00,
2013-03-06 07:37:00,35.0,35.0,30.07,ENE,60,2.0,10.0,100,0.04,,,0.12,VWS V14.00,2013-03-06 12:37:00,
2013-03-06 07:42:00,35.0,35.0,30.07,ESE,110,3.0,10.0,100,0.04,,,0.12,VWS V14.00,2013-03-06 12:42:00,
2013-03-06 07:47:00,35.0,34.8,30.07,ENE,68,3.0,10.0,99,0.04,,,0.12,VWS V14.00,2013-03-06 12:47:00,
2013-03-06 07:52:00,35.0,34.8,30.07,NE,44,5.0,10.0,99,0.03,,,0.12,VWS V14.00,2013-03-06 12:52:00,
2013-03-06 07:57:00,35.0,35.0,30.07,NE,56,1.0,14.0,100,0.04,,,0.13,VWS V14.00,2013-03-06 12:57:00,
2013-03-06 08:02:00,35.0,35.0,30.07,East,100,4.0,9.0,100,0.04,,-RA,0.13,VWS V14.00,2013-03-06 13:02:00,
2013-03-06 08:07:00,34.9,34.9,30.06,NE,34,1.0,9.0,100,0.03,,-RA,0.13,VWS V14.00,2013-03-06 13:07:00,
2013-03-06 08:12:00,34.8,34.8,30.07,East,90,5.0,9.0,100,0.04,,-RA,0.14,VWS V14.00,2013-03-06 13:12:00,
2013-03-06 08:17:00,34.8,34.8,30.07,ENE,67,4.0,13.0,100,0.04,,-RA,0.14,VWS V14.00,2013-03-06 13:17:00,
2013-03-06 08:22:00,35.0,34.8,30.06,ENE,68,4.0,13.0,99,0.03,,-RA,0.14,VWS V14.00,2013-03-06 13:22:00,
2013-03-06 08:27:00,35.0,35.0,30.06,East,91,4.0,13.0,100,0.03,,-RA,0.14,VWS V14.00,2013-03-06 13:27:00,
2013-03-06 08:32:00,35.1,34.8,30.07,NNE,22,2.0,6.0,99,0.03,,-RA,0.14,VWS V14.00,2013-03-06 13:32:00,
2013-03-06 08:37:00,35.1,34.8,30.06,WSW,256,9.0,9.0,99,0.03,,-RA,0.14,VWS V14.00,2013-03-06 13:37:00,
2013-03-06 08:42:00,35.3,35.0,30.07,ESE,109,3.0,11.0,99,0.02,,-RA,0.14,VWS V14.00,2013-03-06 13:42:00,
2013-03-06 08:47:00,35.4,35.4,30.07,East,100,6.0,19.0,100,0.02,,-RA,0.14,VWS V14.00,2013-03-06 13:47:00,
2013-03-06 08:52:00,35.5,35.2,30.06,East,99,4.0,19.0,99,0.02,,-RA,0.14,VWS V14.00,2013-03-06 13:52:00,
2013-03-06 08:57:00,35.5,35.2,30.07,NE,45,19.0,19.0,99,0.02,,-RA,0.14,VWS V14.00,2013-03-06 13:57:00,
2013-03-06 09:02:00,35.4,35.2,30.08,South,183,6.0,8.0,99,0.02,,-RA,0.14,VWS V14.00,2013-03-06 14:02:00,
2013-03-06 09:07:00,35.3,34.8,30.07,East,87,7.0,14.0,98,0.02,,-RA,0.14,VWS V14.00,2013-03-06 14:07:00,
2013-03-06 09:12:00,35.4,34.9,30.07,ESE,104,1.0,14.0,98,0.01,,-RA,0.14,VWS V14.00,2013-03-06 14:12:00,
2013-03-06 09:17:00,35.4,34.9,30.07,SE,128,5.0,14.0,98,0.01,,-RA,0.14,VWS V14.00,2013-03-06 14:17:00,
2013-03-06 09:22:00,35.5,34.7,30.08,ENE,77,3.0,14.0,97,0.01,,-RA,0.14,VWS V14.00,2013-03-06 14:22:00,
2013-03-06 09:27:00,35.5,34.7,30.08,ENE,78,10.0,14.0,97,0.01,,-RA,0.14,VWS V14.00,2013-03-06 14:27:00,
2013-03-06 09:32:00,35.5,34.5,30.08,ENE,75,5.0,15.0,96,0.01,,-RA,0.14,VWS V14.00,2013-03-06 14:32:00,
2013-03-06 09:37:00,35.7,34.7,30.09,ESE,115,5.0,15.0,96,0.01,,-RA,0.14,VWS V14.00,2013-03-06 14:37:00,
2013-03-06 09:42:00,35.7,34.4,30.09,ENE,58,4.0,15.0,95,0.01,,-RA,0.14,VWS V14.00,2013-03-06 14:42:00,
2013-03-06 09:47:00,35.8,34.5,30.09,ENE,75,3.0,15.0,95,0.01,,-RA,0.14,VWS V14.00,2013-03-06 14:47:00,
2013-03-06 09:52:00,35.8,34.2,30.09,East,98,3.0,15.0,94,0.01,,-RA,0.14,VWS V14.00,2013-03-06 14:52:00,
2013-03-06 09:57:00,35.8,34.2,30.09,ESE,105,9.0,15.0,94,0.01,,-RA,0.14,VWS V14.00,2013-03-06 14:57:00,
2013-03-06 10:02:00,35.7,33.6,30.09,ENE,66,3.0,10.0,92,0.01,,,0.14,VWS V14.00,2013-03-06 15:02:00,
2013-03-06 10:07:00,35.5,33.4,30.09,SE,132,3.0,10.0,92,0.01,,,0.14,VWS V14.00,2013-03-06 15:07:00,
2013-03-06 10:12:00,35.5,33.4,30.08,East,89,13.0,13.0,92,0.01,,,0.14,VWS V14.00,2013-03-06 15:12:00,
2013-03-06 10:17:00,35.5,33.4,30.08,ENE,64,11.0,17.0,92,0.01,,,0.14,VWS V14.00,2013-03-06 15:17:00,
2013-03-06 10:22:00,35.5,33.1,30.07,East,85,8.0,17.0,91,0.00,,,0.14,VWS V14.00,2013-03-06 15:22:00,
2013-03-06 10:27:00,35.7,33.3,30.07,East,80,7.0,17.0,91,0.00,,,0.14,VWS V14.00,2013-03-06 15:27:00,
2013-03-06 10:32:00,35.7,33.3,30.07,ENE,59,3.0,7.0,91,0.00,,,0.14,VWS V14.00,2013-03-06 15:32:00,
2013-03-06 10:37:00,35.7,33.3,30.07,South,186,5.0,9.0,91,0.00,,,0.14,VWS V14.00,2013-03-06 15:37:00,
2013-03-06 10:42:00,35.7,33.1,30.07,East,100,4.0,14.0,90,0.00,,,0.14,VWS V14.00,2013-03-06 15:42:00,
2013-03-06 10:47:00,35.8,33.2,30.07,SE,125,5.0,15.0,90,0.00,,,0.14,VWS V14.00,2013-03-06 15:47:00,
2013-03-06 10:52:00,35.8,32.3,30.06,ENE,67,2.0,20.0,87,0.00,,,0.14,VWS V14.00,2013-03-06 15:52:00,
2013-03-06 10:57:00,36.0,32.5,30.07,ESE,114,5.0,20.0,87,0.00,,,0.14,VWS V14.00,2013-03-06 15:57:00,
2013-03-06 11:02:00,36.0,32.5,30.07,NNE,32,14.0,15.0,87,0.00,,,0.14,VWS V14.00,2013-03-06 16:02:00,
2013-03-06 11:07:00,36.0,32.2,30.07,ENE,70,5.0,20.0,86,0.00,,,0.14,VWS V14.00,2013-03-06 16:07:00,
2013-03-06 11:12:00,36.1,31.7,30.07,SE,136,5.0,20.0,84,0.00,,,0.14,VWS V14.00,2013-03-06 16:12:00,
2013-03-06 11:17:00,36.3,31.3,30.07,East,81,5.0,20.0,82,0.00,,,0.14,VWS V14.00,2013-03-06 16:17:00,
2013-03-06 11:22:00,36.4,31.4,30.06,East,80,10.0,20.0,82,0.00,,,0.14,VWS V14.00,2013-03-06 16:22:00,
2013-03-06 11:27:00,36.5,30.9,30.06,ESE,114,6.0,20.0,80,0.00,,,0.14,VWS V14.00,2013-03-06 16:27:00,
2013-03-06 11:32:00,36.7,30.8,30.06,ENE,61,4.0,7.0,79,0.00,,,0.14,VWS V14.00,2013-03-06 16:32:00,
2013-03-06 11:37:00,36.7,30.8,30.07,East,87,1.0,7.0,79,0.00,,,0.14,VWS V14.00,2013-03-06 16:37:00,
2013-03-06 11:42:00,36.7,30.8,30.06,NE,49,4.0,13.0,79,0.00,,,0.14,VWS V14.00,2013-03-06 16:42:00,
2013-03-06 11:47:00,36.7,30.8,30.06,ENE,72,3.0,14.0,79,0.00,,,0.14,VWS V14.00,2013-03-06 16:47:00,
2013-03-06 11:52:00,37.0,31.1,30.06,NE,47,5.0,14.0,79,0.00,,,0.14,VWS V14.00,2013-03-06 16:52:00,
2013-03-06 11:57:00,37.1,31.2,30.06,ESE,108,2.0,14.0,79,0.00,,,0.14,VWS V14.00,2013-03-06 16:57:00,
2013-03-06 12:02:00,37.3,30.4,30.06,ESE,108,6.0,15.0,76,0.00,,,0.14,VWS V14.00,2013-03-06 17:02:00,
2013-03-06 12:07:00,37.1,30.2,30.06,East,90,7.0,15.0,76,0.00,,,0.14,VWS V14.00,2013-03-06 17:07:00,
2013-03-06 12:12:00,37.1,30.2,30.06,ENE,78,4.0,15.0,76,0.00,,,0.14,VWS V14.00,2013-03-06 17:12:00,
2013-03-06 12:17:00,37.1,30.2,30.06,SE,136,5.0,15.0,76,0.00,,,0.14,VWS V14.00,2013-03-06 17:17:00,
2013-03-06 12:22:00,37.1,29.9,30.06,ENE,57,3.0,15.0,75,0.00,,,0.14,VWS V14.00,2013-03-06 17:22:00,
2013-03-06 12:27:00,37.2,30.0,30.07,NE,43,8.0,15.0,75,0.00,,,0.14,VWS V14.00,2013-03-06 17:27:00,
2013-03-06 12:32:00,37.0,29.8,30.07,SE,126,10.0,11.0,75,0.00,,,0.14,VWS V14.00,2013-03-06 17:32:00,
2013-03-06 12:37:00,36.7,30.5,30.06,SE,142,4.0,11.0,78,0.00,,,0.14,VWS V14.00,2013-03-06 17:37:00,
2013-03-06 12:42:00,36.7,31.1,30.06,SSE,157,6.0,11.0,80,0.00,,,0.14,VWS V14.00,2013-03-06 17:42:00,
2013-03-06 12:47:00,37.0,31.4,30.06,NE,53,2.0,11.0,80,0.01,,,0.15,VWS V14.00,2013-03-06 17:47:00,
2013-03-06 12:52:00,37.1,31.5,30.05,East,87,3.0,11.0,80,0.01,,,0.15,VWS V14.00,2013-03-06 17:52:00,
2013-03-06 12:57:00,37.1,31.5,30.06,ENE,66,5.0,11.0,80,0.01,,,0.15,VWS V14.00,2013-03-06 17:57:00,
2013-03-06 13:02:00,36.3,31.0,30.05,East,97,2.0,10.0,81,0.01,,-RA,0.15,VWS V14.00,2013-03-06 18:02:00,
2013-03-06 13:08:00,36.0,31.6,30.06,NE,50,6.0,10.0,84,0.01,,-RA,0.15,VWS V14.00,2013-03-06 18:08:00,
2013-03-06 13:13:00,36.3,31.9,30.06,ENE,64,2.0,11.0,84,0.01,,-RA,0.15,VWS V14.00,2013-03-06 18:13:00,
2013-03-06 13:18:00,36.8,32.4,30.05,NE,42,2.0,11.0,84,0.01,,-RA,0.15,VWS V14.00,2013-03-06 18:18:00,
2013-03-06 13:23:00,37.0,32.0,30.05,SE,139,7.0,14.0,82,0.01,,-RA,0.15,VWS V14.00,2013-03-06 18:23:00,
2013-03-06 13:28:00,37.0,31.7,30.04,East,95,9.0,14.0,81,0.01,,-RA,0.15,VWS V14.00,2013-03-06 18:28:00,
2013-03-06 13:33:00,37.0,31.7,30.04,SE,124,9.0,12.0,81,0.00,,-RA,0.15,VWS V14.00,2013-03-06 18:33:00,
2013-03-06 13:38:00,37.1,32.1,30.05,North,10,6.0,12.0,82,0.00,,-RA,0.15,VWS V14.00,2013-03-06 18:38:00,
2013-03-06 13:43:00,37.0,31.7,30.05,East,83,5.0,12.0,81,0.00,,-RA,0.15,VWS V14.00,2013-03-06 18:43:00,
2013-03-06 13:48:00,36.7,31.7,30.05,NNE,22,2.0,12.0,82,0.00,,-RA,0.15,VWS V14.00,2013-03-06 18:48:00,
2013-03-06 13:53:00,36.4,32.0,30.04,ENE,77,2.0,12.0,84,0.00,,-RA,0.15,VWS V14.00,2013-03-06 18:53:00,
2013-03-06 13:58:00,36.5,32.4,30.05,East,93,3.0,12.0,85,0.00,,-RA,0.15,VWS V14.00,2013-03-06 18:58:00,
2013-03-06 14:03:00,37.0,32.9,30.05,East,95,2.0,14.0,85,0.00,,,0.15,VWS V14.00,2013-03-06 19:03:00,
2013-03-06 14:08:00,37.0,32.9,30.05,NE,49,4.0,14.0,85,0.00,,,0.15,VWS V14.00,2013-03-06 19:08:00,
2013-03-06 14:13:00,36.8,33.0,30.05,NE,51,4.0,14.0,86,0.00,,,0.15,VWS V14.00,2013-03-06 19:13:00,
2013-03-06 14:18:00,36.7,32.9,30.05,East,87,6.0,14.0,86,0.00,,,0.15,VWS V14.00,2013-03-06 19:18:00,
2013-03-06 14:23:00,36.3,32.5,30.05,ENE,58,7.0,20.0,86,0.00,,,0.15,VWS V14.00,2013-03-06 19:23:00,
2013-03-06 14:28:00,36.1,32.3,30.05,ENE,75,3.0,20.0,86,0.00,,,0.15,VWS V14.00,2013-03-06 19:28:00,
2013-03-06 14:33:00,36.3,32.5,30.04,ENE,66,15.0,18.0,86,0.00,,,0.15,VWS V14.00,2013-03-06 19:33:00,
2013-03-06 14:38:00,36.3,32.5,30.05,NE,39,5.0,18.0,86,0.00,,,0.15,VWS V14.00,2013-03-06 19:38:00,
2013-03-06 14:43:00,36.3,32.5,30.05,ENE,63,9.0,18.0,86,0.00,,,0.15,VWS V14.00,2013-03-06 19:43:00,
2013-03-06 14:48:00,36.3,32.2,30.05,ENE,72,2.0,18.0,85,0.00,,,0.15,VWS V14.00,2013-03-06 19:48:00,
2013-03-06 14:53:00,36.4,32.3,30.05,ENE,66,3.0,18.0,85,0.00,,,0.15,VWS V14.00,2013-03-06 19:53:00,
2013-03-06 14:58:00,36.4,32.3,30.04,NE,48,3.0,18.0,85,0.00,,,0.15,VWS V14.00,2013-03-06 19:58:00,
2013-03-06 15:03:00,36.5,32.1,30.05,East,93,2.0,18.0,84,0.00,,,0.15,VWS V14.00,2013-03-06 20:03:00,
2013-03-06 15:08:00,36.5,32.1,30.05,East,97,4.0,18.0,84,0.00,,,0.15,VWS V14.00,2013-03-06 20:08:00,
2013-03-06 15:13:00,36.3,31.6,30.05,East,92,6.0,18.0,83,0.00,,,0.15,VWS V14.00,2013-03-06 20:13:00,
2013-03-06 15:18:00,36.3,31.6,30.04,NNE,23,5.0,18.0,83,0.00,,,0.15,VWS V14.00,2013-03-06 20:18:00,
2013-03-06 15:23:00,36.1,31.5,30.04,ENE,64,11.0,18.0,83,0.00,,,0.15,VWS V14.00,2013-03-06 20:23:00,
2013-03-06 15:28:00,35.8,31.5,30.05,NE,54,5.0,18.0,84,0.00,,,0.15,VWS V14.00,2013-03-06 20:28:00,
2013-03-06 15:33:00,35.4,31.6,30.04,East,81,4.0,10.0,86,0.00,,,0.15,VWS V14.00,2013-03-06 20:33:00,
2013-03-06 15:38:00,35.0,31.5,30.05,East,98,2.0,10.0,87,0.00,,,0.15,VWS V14.00,2013-03-06 20:38:00,
2013-03-06 15:43:00,34.8,31.6,30.05,ESE,121,9.0,10.0,88,0.00,,,0.15,VWS V14.00,2013-03-06 20:43:00,
2013-03-06 15:48:00,34.5,31.9,30.05,East,93,9.0,10.0,90,0.01,,,0.16,VWS V14.00,2013-03-06 20:48:00,
2013-03-06 15:53:00,34.0,31.4,30.06,East,99,3.0,14.0,90,0.01,,,0.16,VWS V14.00,2013-03-06 20:53:00,
2013-03-06 15:58:00,33.5,31.2,30.05,East,86,6.0,14.0,91,0.01,,,0.16,VWS V14.00,2013-03-06 20:58:00,
2013-03-06 16:03:00,33.5,31.4,30.05,ENE,69,1.0,13.0,92,0.01,,,0.16,VWS V14.00,2013-03-06 21:03:00,
2013-03-06 16:08:00,33.7,31.9,30.06,East,95,3.0,13.0,93,0.01,,,0.16,VWS V14.00,2013-03-06 21:08:00,
2013-03-06 16:13:00,33.8,31.7,30.05,NE,38,3.0,16.0,92,0.01,,,0.16,VWS V14.00,2013-03-06 21:13:00,
2013-03-06 16:18:00,33.8,32.0,30.05,NNE,24,5.0,16.0,93,0.01,,,0.16,VWS V14.00,2013-03-06 21:18:00,
2013-03-06 16:23:00,33.5,31.4,30.05,East,83,4.0,16.0,92,0.01,,,0.16,VWS V14.00,2013-03-06 21:23:00,
2013-03-06 16:28:00,33.4,31.6,30.05,NNE,22,3.0,16.0,93,0.01,,,0.16,VWS V14.00,2013-03-06 21:28:00,
2013-03-06 16:33:00,33.3,31.8,30.05,East,93,5.0,8.0,94,0.01,,,0.17,VWS V14.00,2013-03-06 21:33:00,
2013-03-06 16:38:00,33.3,31.8,30.05,North,6,6.0,10.0,94,0.01,,,0.17,VWS V14.00,2013-03-06 21:38:00,
2013-03-06 16:43:00,33.4,31.9,30.06,NE,41,2.0,10.0,94,0.01,,,0.17,VWS V14.00,2013-03-06 21:43:00,
2013-03-06 16:48:00,33.4,31.9,30.06,NE,34,8.0,11.0,94,0.01,,,0.17,VWS V14.00,2013-03-06 21:48:00,
2013-03-06 16:53:00,33.5,32.0,30.06,NE,50,2.0,15.0,94,0.01,,,0.17,VWS V14.00,2013-03-06 21:53:00,
2013-03-06 16:58:00,33.5,32.0,30.06,East,90,0.0,15.0,94,0.01,,,0.17,VWS V14.00,2013-03-06 21:58:00,
2013-03-06 17:03:00,33.5,32.0,30.07,East,93,6.0,11.0,94,0.01,,-RA,0.17,VWS V14.00,2013-03-06 22:03:00,
2013-03-06 17:08:00,33.5,32.0,30.07,NE,44,6.0,12.0,94,0.01,,-RA,0.17,VWS V14.00,2013-03-06 22:08:00,
2013-03-06 17:13:00,33.5,31.7,30.07,North,357,4.0,12.0,93,0.01,,-RA,0.17,VWS V14.00,2013-03-06 22:13:00,
2013-03-06 17:18:00,33.5,32.0,30.08,NNE,26,3.0,12.0,94,0.01,,-RA,0.17,VWS V14.00,2013-03-06 22:18:00,
2013-03-06 17:23:00,33.4,31.9,30.07,NNE,18,2.0,12.0,94,0.01,,-RA,0.17,VWS V14.00,2013-03-06 22:23:00,
2013-03-06 17:28:00,33.4,31.9,30.07,NE,48,6.0,12.0,94,0.01,,-RA,0.17,VWS V14.00,2013-03-06 22:28:00,
2013-03-06 17:33:00,33.4,31.9,30.07,ENE,59,2.0,8.0,94,0.01,,-RA,0.17,VWS V14.00,2013-03-06 22:33:00,
2013-03-06 17:38:00,33.4,31.9,30.07,NNE,31,6.0,9.0,94,0.00,,-RA,0.17,VWS V14.00,2013-03-06 22:38:00,
2013-03-06 17:43:00,33.3,31.5,30.07,NE,40,2.0,11.0,93,0.00,,-RA,0.17,VWS V14.00,2013-03-06 22:43:00,
2013-03-06 17:48:00,33.4,31.6,30.07,NNE,25,4.0,11.0,93,0.00,,-RA,0.17,VWS V14.00,2013-03-06 22:48:00,
2013-03-06 17:53:00,33.4,31.6,30.06,NNE,27,4.0,11.0,93,0.00,,-RA,0.17,VWS V14.00,2013-03-06 22:53:00,
2013-03-06 17:58:00,33.4,31.6,30.06,NNE,20,3.0,11.0,93,0.00,,-RA,0.17,VWS V14.00,2013-03-06 22:58:00,
2013-03-06 18:03:00,33.4,31.6,30.06,NNE,18,3.0,10.0,93,0.00,,,0.17,VWS V14.00,2013-03-06 23:03:00,
2013-03-06 18:08:00,33.4,31.6,30.06,NNE,26,8.0,13.0,93,0.00,,,0.17,VWS V14.00,2013-03-06 23:08:00,
2013-03-06 18:13:00,33.3,31.2,30.06,North,3,2.0,16.0,92,0.00,,,0.17,VWS V14.00,2013-03-06 23:13:00,
2013-03-06 18:18:00,33.3,31.2,30.05,NE,51,2.0,16.0,92,0.00,,,0.17,VWS V14.00,2013-03-06 23:18:00,
2013-03-06 18:23:00,33.0,31.2,30.06,NE,49,2.0,16.0,93,0.00,,,0.17,VWS V14.00,2013-03-06 23:23:00,
2013-03-06 18:28:00,32.7,30.9,30.06,NNE,18,1.0,16.0,93,0.00,,,0.17,VWS V14.00,2013-03-06 23:28:00,
2013-03-06 18:33:00,32.7,31.2,30.07,SE,125,5.0,8.0,94,0.00,,,0.17,VWS V14.00,2013-03-06 23:33:00,
2013-03-06 18:38:00,32.6,31.1,30.07,NE,35,4.0,9.0,94,0.00,,,0.17,VWS V14.00,2013-03-06 23:38:00,
2013-03-06 18:43:00,32.4,30.9,30.06,NE,47,7.0,11.0,94,0.00,,,0.17,VWS V14.00,2013-03-06 23:43:00,
2013-03-06 18:48:00,32.4,31.1,30.07,NE,45,3.0,11.0,95,0.00,,,0.17,VWS V14.00,2013-03-06 23:48:00,
2013-03-06 18:53:00,32.4,31.1,30.08,ENE,71,5.0,11.0,95,0.00,,,0.17,VWS V14.00,2013-03-06 23:53:00,
2013-03-06 18:58:00,32.4,31.1,30.07,ENE,66,4.0,11.0,95,0.00,,,0.17,VWS V14.00,2013-03-06 23:58:00,
2013-03-06 19:03:00,32.6,31.3,30.08,NE,40,5.0,10.0,95,0.00,,,0.17,VWS V14.00,2013-03-07 00:03:00,
2013-03-06 19:08:00,32.6,31.6,30.08,East,83,3.0,12.0,96,0.00,,,0.17,VWS V14.00,2013-03-07 00:08:00,
2013-03-06 19:13:00,32.7,31.7,30.08,North,1,2.0,12.0,96,0.00,,,0.17,VWS V14.00,2013-03-07 00:13:00,
2013-03-06 19:18:00,32.6,31.6,30.08,NE,55,5.0,12.0,96,0.00,,,0.17,VWS V14.00,2013-03-07 00:18:00,
2013-03-06 19:23:00,32.6,31.3,30.08,NE,46,5.0,12.0,95,0.00,,,0.17,VWS V14.00,2013-03-07 00:23:00,
2013-03-06 19:28:00,32.4,31.1,30.08,NE,42,1.0,12.0,95,0.00,,,0.17,VWS V14.00,2013-03-07 00:28:00,
2013-03-06 19:33:00,32.3,31.0,30.08,NE,47,2.0,9.0,95,0.00,,,0.17,VWS V14.00,2013-03-07 00:33:00,
2013-03-06 19:38:00,32.2,30.9,30.08,NE,46,1.0,11.0,95,0.00,,,0.17,VWS V14.00,2013-03-07 00:38:00,
2013-03-06 19:43:00,32.2,31.2,30.08,NNE,27,2.0,11.0,96,0.00,,,0.17,VWS V14.00,2013-03-07 00:43:00,
2013-03-06 19:48:00,32.0,31.0,30.07,North,0,1.0,11.0,96,0.00,,,0.17,VWS V14.00,2013-03-07 00:48:00,
2013-03-06 19:53:00,32.2,31.2,30.07,NNE,24,1.0,11.0,96,0.00,,,0.17,VWS V14.00,2013-03-07 00:53:00,
2013-03-06 19:58:00,32.2,31.2,30.07,ENE,63,4.0,11.0,96,0.00,,,0.17,VWS V14.00,2013-03-07 00:58:00,
2013-03-06 20:03:00,32.2,31.2,30.07,NE,38,4.0,11.0,96,0.00,,OVC025,0.17,VWS V14.00,2013-03-07 01:03:00,
2013-03-06 20:08:00,32.3,31.3,30.07,ENE,75,1.0,11.0,96,0.00,,OVC025,0.17,VWS V14.00,2013-03-07 01:08:00,
2013-03-06 20:13:00,32.3,31.3,30.07,NNE,31,9.0,11.0,96,0.00,,OVC025,0.17,VWS V14.00,2013-03-07 01:13:00,
2013-03-06 20:17:00,32.3,31.0,30.06,ENE,64,1.0,11.0,95,0.00,,OVC025,0.17,VWS V14.00,2013-03-07 01:17:00,
2013-03-06 20:22:00,32.3,31.3,30.07,North,9,3.0,11.0,96,0.00,,OVC025,0.17,VWS V14.00,2013-03-07 01:22:00,
2013-03-06 20:27:00,32.3,31.3,30.07,ENE,65,3.0,11.0,96,0.00,,OVC025,0.17,VWS V14.00,2013-03-07 01:27:00,
2013-03-06 20:32:00,32.4,31.4,30.06,ENE,57,7.0,9.0,96,0.00,,OVC025,0.17,VWS V14.00,2013-03-07 01:32:00,
2013-03-06 20:37:00,32.4,31.4,30.06,NNE,31,3.0,9.0,96,0.00,,OVC025,0.17,VWS V14.00,2013-03-07 01:37:00,
2013-03-06 20:42:00,32.4,31.4,30.06,NE,34,2.0,9.0,96,0.00,,OVC025,0.17,VWS V14.00,2013-03-07 01:42:00,
2013-03-06 20:47:00,32.4,31.4,30.06,NNE,19,4.0,10.0,96,0.00,,OVC025,0.17,VWS V14.00,2013-03-07 01:47:00,
2013-03-06 20:52:00,32.6,31.3,30.05,ENE,66,4.0,13.0,95,0.00,,OVC025,0.17,VWS V14.00,2013-03-07 01:52:00,
2013-03-06 20:57:00,32.8,31.5,30.05,North,358,3.0,13.0,95,0.00,,OVC025,0.17,VWS V14.00,2013-03-07 01:57:00,
2013-03-06 21:02:00,33.0,31.7,30.05,NE,34,5.0,9.0,95,0.00,,OVC055,0.17,VWS V14.00,2013-03-07 02:02:00,
2013-03-06 21:07:00,33.1,31.6,30.06,North,5,3.0,11.0,94,0.00,,OVC055,0.17,VWS V14.00,2013-03-07 02:07:00,
2013-03-06 21:12:00,33.3,31.5,30.06,East,81,1.0,11.0,93,0.00,,OVC055,0.17,VWS V14.00,2013-03-07 02:12:00,
2013-03-06 21:17:00,33.3,31.2,30.06,ENE,76,4.0,17.0,92,0.00,,OVC055,0.17,VWS V14.00,2013-03-07 02:17:00,
2013-03-06 21:22:00,33.3,31.0,30.05,NE,35,6.0,17.0,91,0.00,,OVC055,0.17,VWS V14.00,2013-03-07 02:22:00,
2013-03-06 21:28:00,33.3,31.0,30.05,ENE,61,4.0,17.0,91,0.00,,OVC055,0.17,VWS V14.00,2013-03-07 02:28:00,
2013-03-06 21:33:00,33.3,30.7,30.05,North,7,4.0,14.0,90,0.00,,OVC055,0.17,VWS V14.00,2013-03-07 02:33:00,
2013-03-06 21:38:00,33.3,30.7,30.05,NNE,28,7.0,14.0,90,0.00,,OVC055,0.17,VWS V14.00,2013-03-07 02:38:00,
2013-03-06 21:43:00,33.1,30.5,30.05,ENE,58,5.0,14.0,90,0.00,,OVC055,0.17,VWS V14.00,2013-03-07 02:43:00,
2013-03-06 21:48:00,33.1,30.5,30.05,NNE,24,5.0,14.0,90,0.00,,OVC055,0.17,VWS V14.00,2013-03-07 02:48:00,
2013-03-06 21:53:00,33.1,30.5,30.05,NE,45,3.0,14.0,90,0.00,,OVC055,0.17,VWS V14.00,2013-03-07 02:53:00,
2013-03-06 21:58:00,33.1,30.2,30.06,NE,34,2.0,14.0,89,0.00,,OVC055,0.17,VWS V14.00,2013-03-07 02:58:00,
2013-03-06 22:03:00,33.1,30.5,30.05,North,359,1.0,9.0,90,0.00,,OVC045,0.17,VWS V14.00,2013-03-07 03:03:00,
2013-03-06 22:08:00,33.1,30.5,30.05,NE,44,2.0,12.0,90,0.00,,OVC045,0.17,VWS V14.00,2013-03-07 03:08:00,
2013-03-06 22:12:00,33.1,30.2,30.05,NE,38,3.0,12.0,89,0.00,,OVC045,0.17,VWS V14.00,2013-03-07 03:12:00,
2013-03-06 22:17:00,33.1,30.2,30.05,ENE,63,2.0,12.0,89,0.00,,OVC045,0.17,VWS V14.00,2013-03-07 03:17:00,
2013-03-06 22:22:00,33.1,30.2,30.05,North,1,4.0,12.0,89,0.00,,OVC045,0.17,VWS V14.00,2013-03-07 03:22:00,
2013-03-06 22:28:00,33.1,30.2,30.05,NE,50,4.0,12.0,89,0.00,,OVC045,0.17,VWS V14.00,2013-03-07 03:28:00,
2013-03-06 22:33:00,33.3,30.4,30.05,NE,40,2.0,11.0,89,0.00,,OVC045,0.17,VWS V14.00,2013-03-07 03:33:00,
2013-03-06 22:37:00,33.3,30.4,30.05,North,3,4.0,11.0,89,0.00,,OVC045,0.17,VWS V14.00,2013-03-07 03:37:00,
2013-03-06 22:42:00,33.0,30.1,30.05,NE,36,3.0,13.0,89,0.00,,OVC045,0.17,VWS V14.00,2013-03-07 03:42:00,
2013-03-06 22:47:00,32.6,30.0,30.05,NNW,338,2.0,13.0,90,0.00,,OVC045,0.17,VWS V14.00,2013-03-07 03:47:00,
2013-03-06 22:52:00,32.6,30.0,30.05,North,2,3.0,13.0,90,0.00,,OVC045,0.17,VWS V14.00,2013-03-07 03:52:00,
2013-03-06 22:57:00,32.4,30.1,30.05,ENE,67,7.0,14.0,91,0.00,,OVC045,0.17,VWS V14.00,2013-03-07 03:57:00,
2013-03-06 23:02:00,32.3,30.0,30.05,NE,35,2.0,8.0,91,0.00,,,0.17,VWS V14.00,2013-03-07 04:02:00,
2013-03-06 23:07:00,32.2,30.1,30.05,NNW,327,13.0,13.0,92,0.00,,,0.17,VWS V14.00,2013-03-07 04:07:00,
2013-03-06 23:12:00,32.2,30.1,30.05,NNE,28,4.0,13.0,92,0.00,,,0.17,VWS V14.00,2013-03-07 04:12:00,
2013-03-06 23:18:00,32.2,30.1,30.06,NNE,17,4.0,13.0,92,0.00,,,0.17,VWS V14.00,2013-03-07 04:18:00,
2013-03-06 23:23:00,32.1,30.3,30.06,NE,35,7.0,13.0,93,0.00,,,0.17,VWS V14.00,2013-03-07 04:23:00,
2013-03-06 23:28:00,32.2,30.4,30.05,NNE,28,6.0,19.0,93,0.00,,,0.17,VWS V14.00,2013-03-07 04:28:00,
2013-03-06 23:33:00,32.3,30.5,30.06,East,82,10.0,15.0,93,0.00,,,0.17,VWS V14.00,2013-03-07 04:33:00,
2013-03-06 23:38:00,32.2,30.4,30.05,North,359,3.0,15.0,93,0.00,,,0.17,VWS V14.00,2013-03-07 04:38:00,
2013-03-06 23:43:00,32.0,30.5,30.05,North,6,8.0,15.0,94,0.00,,,0.17,VWS V14.00,2013-03-07 04:43:00,
2013-03-06 23:48:00,32.0,30.5,30.05,NNE,12,1.0,15.0,94,0.00,,,0.17,VWS V14.00,2013-03-07 04:48:00,
2013-03-06 23:52:00,32.0,30.5,30.05,NE,34,2.0,15.0,94,0.00,,,0.17,VWS V14.00,2013-03-07 04:52:00,
2013-03-06 23:57:00,32.0,30.5,30.05,ENE,69,4.0,15.0,94,0.00,,,0.17,VWS V14.00,2013-03-07 04:57:00,